sensor_id;sensor_type;location;lat;lon;timestamp;temperature;humidity
70928;SHT31;58587;53.034;18.576;2022-11-18T12:07:55;4.06;54.39
70928;SHT31;58587;53.034;18.576;2022-11-18T12:10:28;3.60;55.73
70928;SHT31;58587;53.034;18.576;2022-11-18T12:18:19;3.90;59.50
70928;SHT31;58587;53.034;18.576;2022-11-18T12:20:45;6.28;54.61
70928;SHT31;58587;53.034;18.576;2022-11-18T12:28:08;9.36;43.92
70928;SHT31;58587;53.034;18.576;2022-11-18T12:30:33;9.22;42.25
70928;SHT31;58587;53.034;18.576;2022-11-18T12:32:58;8.77;43.07
70928;SHT31;58587;53.034;18.576;2022-11-18T12:35:26;8.33;44.36
70928;SHT31;58587;53.034;18.576;2022-11-18T12:42:58;6.57;48.23
70928;SHT31;58587;53.034;18.576;2022-11-18T12:50:53;5.06;51.86
70928;SHT31;58587;53.034;18.576;2022-11-18T12:53:46;4.86;53.52
70928;SHT31;58587;53.034;18.576;2022-11-18T12:56:32;4.74;54.04
70928;SHT31;58587;53.034;18.576;2022-11-18T12:59:00;4.58;54.48
70928;SHT31;58587;53.034;18.576;2022-11-18T13:01:27;4.45;56.06
70928;SHT31;58587;53.034;18.576;2022-11-18T13:04:05;4.36;55.43
70928;SHT31;58587;53.034;18.576;2022-11-18T13:06:32;4.34;57.16
70928;SHT31;58587;53.034;18.576;2022-11-18T13:09:01;3.83;55.94
70928;SHT31;58587;53.034;18.576;2022-11-18T13:11:30;3.76;57.89
70928;SHT31;58587;53.034;18.576;2022-11-18T13:14:15;3.34;57.94
70928;SHT31;58587;53.034;18.576;2022-11-18T13:17:00;2.93;59.87
70928;SHT31;58587;53.034;18.576;2022-11-18T13:19:53;2.77;62.68
70928;SHT31;58587;53.034;18.576;2022-11-18T13:22:20;2.44;63.54
70928;SHT31;58587;53.034;18.576;2022-11-18T13:25:04;2.19;63.78
70928;SHT31;58587;53.034;18.576;2022-11-18T13:27:50;2.18;65.24
70928;SHT31;58587;53.034;18.576;2022-11-18T13:30:18;2.15;65.58
70928;SHT31;58587;53.034;18.576;2022-11-18T13:32:45;2.09;66.52
70928;SHT31;58587;53.034;18.576;2022-11-18T13:35:18;2.02;66.81
70928;SHT31;58587;53.034;18.576;2022-11-18T13:37:57;1.92;67.09
70928;SHT31;58587;53.034;18.576;2022-11-18T13:40:28;1.77;67.25
70928;SHT31;58587;53.034;18.576;2022-11-18T13:42:54;1.74;68.06
70928;SHT31;58587;53.034;18.576;2022-11-18T13:45:24;1.69;68.24
70928;SHT31;58587;53.034;18.576;2022-11-18T13:48:00;1.68;68.26
70928;SHT31;58587;53.034;18.576;2022-11-18T13:55:39;1.43;68.80
70928;SHT31;58587;53.034;18.576;2022-11-18T13:58:28;1.48;69.20
70928;SHT31;58587;53.034;18.576;2022-11-18T14:00:57;1.38;69.72
70928;SHT31;58587;53.034;18.576;2022-11-18T14:06:08;1.28;70.15
70928;SHT31;58587;53.034;18.576;2022-11-18T14:08:36;1.13;70.39
70928;SHT31;58587;53.034;18.576;2022-11-18T14:11:02;1.19;70.37
70928;SHT31;58587;53.034;18.576;2022-11-18T14:13:31;1.12;70.45
70928;SHT31;58587;53.034;18.576;2022-11-18T14:15:59;0.97;70.33
70928;SHT31;58587;53.034;18.576;2022-11-18T14:18:31;0.90;70.34
70928;SHT31;58587;53.034;18.576;2022-11-18T14:20:58;0.87;70.91
70928;SHT31;58587;53.034;18.576;2022-11-18T14:23:35;0.90;71.32
70928;SHT31;58587;53.034;18.576;2022-11-18T14:26:03;0.83;71.27
70928;SHT31;58587;53.034;18.576;2022-11-18T14:28:30;0.80;71.34
70928;SHT31;58587;53.034;18.576;2022-11-18T14:31:24;0.80;71.12
70928;SHT31;58587;53.034;18.576;2022-11-18T14:36:48;0.80;71.62
70928;SHT31;58587;53.034;18.576;2022-11-18T14:39:29;0.80;71.71
70928;SHT31;58587;53.034;18.576;2022-11-18T14:41:55;0.76;71.87
70928;SHT31;58587;53.034;18.576;2022-11-18T14:44:23;0.73;71.66
70928;SHT31;58587;53.034;18.576;2022-11-18T14:46:56;0.73;72.17
70928;SHT31;58587;53.034;18.576;2022-11-18T14:49:24;0.69;72.51
70928;SHT31;58587;53.034;18.576;2022-11-18T14:51:51;0.70;72.72
70928;SHT31;58587;53.034;18.576;2022-11-18T14:54:18;0.66;72.77
70928;SHT31;58587;53.034;18.576;2022-11-18T14:56:45;0.65;73.11
70928;SHT31;58587;53.034;18.576;2022-11-18T14:59:13;0.66;73.31
70928;SHT31;58587;53.034;18.576;2022-11-18T15:01:39;0.65;72.90
70928;SHT31;58587;53.034;18.576;2022-11-18T15:04:05;0.68;73.64
70928;SHT31;58587;53.034;18.576;2022-11-18T15:06:30;0.63;73.79
70928;SHT31;58587;53.034;18.576;2022-11-18T15:08:56;0.65;74.42
70928;SHT31;58587;53.034;18.576;2022-11-18T15:11:21;0.62;74.10
70928;SHT31;58587;53.034;18.576;2022-11-18T15:13:47;0.62;74.25
70928;SHT31;58587;53.034;18.576;2022-11-18T15:16:22;0.63;74.09
70928;SHT31;58587;53.034;18.576;2022-11-18T15:18:50;0.61;74.18
70928;SHT31;58587;53.034;18.576;2022-11-18T15:21:17;0.56;73.79
70928;SHT31;58587;53.034;18.576;2022-11-18T15:23:42;0.59;73.82
70928;SHT31;58587;53.034;18.576;2022-11-18T15:26:18;0.61;73.97
70928;SHT31;58587;53.034;18.576;2022-11-18T15:28:49;0.56;73.72
70928;SHT31;58587;53.034;18.576;2022-11-18T15:31:15;0.51;73.26
70928;SHT31;58587;53.034;18.576;2022-11-18T15:33:41;0.56;73.69
70928;SHT31;58587;53.034;18.576;2022-11-18T15:36:11;0.48;73.70
70928;SHT31;58587;53.034;18.576;2022-11-18T15:38:38;0.48;73.50
70928;SHT31;58587;53.034;18.576;2022-11-18T15:41:04;0.45;72.88
70928;SHT31;58587;53.034;18.576;2022-11-18T15:43:29;0.46;73.72
70928;SHT31;58587;53.034;18.576;2022-11-18T15:45:56;0.42;73.54
70928;SHT31;58587;53.034;18.576;2022-11-18T15:48:22;0.44;73.13
70928;SHT31;58587;53.034;18.576;2022-11-18T15:50:47;0.41;72.86
70928;SHT31;58587;53.034;18.576;2022-11-18T15:53:13;0.45;73.93
70928;SHT31;58587;53.034;18.576;2022-11-18T15:55:38;0.42;73.33
70928;SHT31;58587;53.034;18.576;2022-11-18T15:58:03;0.44;73.66
70928;SHT31;58587;53.034;18.576;2022-11-18T16:00:29;0.44;73.41
70928;SHT31;58587;53.034;18.576;2022-11-18T16:02:54;0.40;72.54
70928;SHT31;58587;53.034;18.576;2022-11-18T16:05:19;0.41;73.24
70928;SHT31;58587;53.034;18.576;2022-11-18T16:07:45;0.45;72.84
70928;SHT31;58587;53.034;18.576;2022-11-18T16:10:12;0.44;72.92
70928;SHT31;58587;53.034;18.576;2022-11-18T16:12:55;0.42;72.70
70928;SHT31;58587;53.034;18.576;2022-11-18T16:15:21;0.41;73.33
70928;SHT31;58587;53.034;18.576;2022-11-18T16:18:05;0.41;72.95
70928;SHT31;58587;53.034;18.576;2022-11-18T16:20:30;0.40;72.03
70928;SHT31;58587;53.034;18.576;2022-11-18T16:22:56;0.40;73.17
70928;SHT31;58587;53.034;18.576;2022-11-18T16:25:22;0.40;72.90
70928;SHT31;58587;53.034;18.576;2022-11-18T16:27:48;0.38;72.14
70928;SHT31;58587;53.034;18.576;2022-11-18T16:30:14;0.35;71.54
70928;SHT31;58587;53.034;18.576;2022-11-18T16:32:58;0.38;72.29
70928;SHT31;58587;53.034;18.576;2022-11-18T16:35:23;0.38;73.65
70928;SHT31;58587;53.034;18.576;2022-11-18T16:37:49;0.38;73.38
70928;SHT31;58587;53.034;18.576;2022-11-18T16:40:15;0.37;72.39
70928;SHT31;58587;53.034;18.576;2022-11-18T16:42:40;0.38;74.00
70928;SHT31;58587;53.034;18.576;2022-11-18T16:45:06;0.38;72.26
70928;SHT31;58587;53.034;18.576;2022-11-18T16:47:31;0.37;72.56
70928;SHT31;58587;53.034;18.576;2022-11-18T16:49:57;0.38;72.43
70928;SHT31;58587;53.034;18.576;2022-11-18T16:52:22;0.40;73.04
70928;SHT31;58587;53.034;18.576;2022-11-18T16:54:47;0.40;73.56
70928;SHT31;58587;53.034;18.576;2022-11-18T16:57:13;0.40;73.05
70928;SHT31;58587;53.034;18.576;2022-11-18T16:59:38;0.37;72.21
70928;SHT31;58587;53.034;18.576;2022-11-18T17:02:04;0.35;71.92
70928;SHT31;58587;53.034;18.576;2022-11-18T17:04:30;0.38;72.24
70928;SHT31;58587;53.034;18.576;2022-11-18T17:06:56;0.33;71.27
70928;SHT31;58587;53.034;18.576;2022-11-18T17:09:24;0.35;71.67
70928;SHT31;58587;53.034;18.576;2022-11-18T17:11:52;0.35;71.98
70928;SHT31;58587;53.034;18.576;2022-11-18T17:14:17;0.31;71.24
70928;SHT31;58587;53.034;18.576;2022-11-18T17:16:43;0.31;70.81
70928;SHT31;58587;53.034;18.576;2022-11-18T17:19:13;0.32;70.80
70928;SHT31;58587;53.034;18.576;2022-11-18T17:21:39;0.29;70.32
70928;SHT31;58587;53.034;18.576;2022-11-18T17:24:05;0.28;70.12
70928;SHT31;58587;53.034;18.576;2022-11-18T17:26:31;0.25;70.32
70928;SHT31;58587;53.034;18.576;2022-11-18T17:28:56;0.22;69.65
70928;SHT31;58587;53.034;18.576;2022-11-18T17:31:22;0.25;70.16
70928;SHT31;58587;53.034;18.576;2022-11-18T17:33:50;0.26;70.56
70928;SHT31;58587;53.034;18.576;2022-11-18T17:36:24;0.21;70.28
70928;SHT31;58587;53.034;18.576;2022-11-18T17:38:51;0.17;70.03
70928;SHT31;58587;53.034;18.576;2022-11-18T17:41:19;0.15;69.49
70928;SHT31;58587;53.034;18.576;2022-11-18T17:44:05;0.05;69.22
70928;SHT31;58587;53.034;18.576;2022-11-18T17:46:32;0.01;69.16
70928;SHT31;58587;53.034;18.576;2022-11-18T17:48:59;-0.06;68.28
70928;SHT31;58587;53.034;18.576;2022-11-18T17:51:26;-0.17;68.31
70928;SHT31;58587;53.034;18.576;2022-11-18T17:53:52;-0.17;68.36
70928;SHT31;58587;53.034;18.576;2022-11-18T17:56:18;-0.24;68.31
70928;SHT31;58587;53.034;18.576;2022-11-18T17:58:44;-0.27;68.87
70928;SHT31;58587;53.034;18.576;2022-11-18T18:01:13;-0.33;68.63
70928;SHT31;58587;53.034;18.576;2022-11-18T18:03:39;-0.38;69.43
70928;SHT31;58587;53.034;18.576;2022-11-18T18:06:06;-0.38;70.05
70928;SHT31;58587;53.034;18.576;2022-11-18T18:08:33;-0.43;70.41
70928;SHT31;58587;53.034;18.576;2022-11-18T18:11:06;-0.53;69.94
70928;SHT31;58587;53.034;18.576;2022-11-18T18:13:31;-0.61;70.35
70928;SHT31;58587;53.034;18.576;2022-11-18T18:16:16;-0.65;71.24
70928;SHT31;58587;53.034;18.576;2022-11-18T18:18:45;-0.67;71.01
70928;SHT31;58587;53.034;18.576;2022-11-18T18:21:13;-0.73;71.65
70928;SHT31;58587;53.034;18.576;2022-11-18T18:23:39;-0.75;72.00
70928;SHT31;58587;53.034;18.576;2022-11-18T18:26:06;-0.85;71.69
70928;SHT31;58587;53.034;18.576;2022-11-18T18:28:37;-0.88;72.52
70928;SHT31;58587;53.034;18.576;2022-11-18T18:31:11;-0.85;72.31
70928;SHT31;58587;53.034;18.576;2022-11-18T18:33:37;-0.94;72.26
70928;SHT31;58587;53.034;18.576;2022-11-18T18:36:14;-0.96;72.48
70928;SHT31;58587;53.034;18.576;2022-11-18T18:38:40;-0.95;72.76
70928;SHT31;58587;53.034;18.576;2022-11-18T18:41:13;-1.06;73.06
70928;SHT31;58587;53.034;18.576;2022-11-18T18:43:39;-1.09;73.48
70928;SHT31;58587;53.034;18.576;2022-11-18T18:46:11;-1.09;73.55
70928;SHT31;58587;53.034;18.576;2022-11-18T18:48:56;-1.11;73.55
70928;SHT31;58587;53.034;18.576;2022-11-18T18:51:22;-1.13;74.14
70928;SHT31;58587;53.034;18.576;2022-11-18T18:53:47;-1.18;74.31
70928;SHT31;58587;53.034;18.576;2022-11-18T18:56:12;-1.20;74.58
70928;SHT31;58587;53.034;18.576;2022-11-18T18:58:38;-1.22;74.54
70928;SHT31;58587;53.034;18.576;2022-11-18T19:01:14;-1.26;74.36
70928;SHT31;58587;53.034;18.576;2022-11-18T19:03:40;-1.24;74.84
70928;SHT31;58587;53.034;18.576;2022-11-18T19:08:39;-1.28;74.64
70928;SHT31;58587;53.034;18.576;2022-11-18T19:11:05;-1.31;74.51
70928;SHT31;58587;53.034;18.576;2022-11-18T19:13:31;-1.36;74.27
70928;SHT31;58587;53.034;18.576;2022-11-18T19:15:57;-1.38;74.37
70928;SHT31;58587;53.034;18.576;2022-11-18T19:18:22;-1.42;74.51
70928;SHT31;58587;53.034;18.576;2022-11-18T19:20:51;-1.48;74.56
70928;SHT31;58587;53.034;18.576;2022-11-18T19:23:17;-1.48;75.38
70928;SHT31;58587;53.034;18.576;2022-11-18T19:25:43;-1.49;75.34
70928;SHT31;58587;53.034;18.576;2022-11-18T19:28:09;-1.53;75.41
70928;SHT31;58587;53.034;18.576;2022-11-18T19:30:36;-1.53;75.23
70928;SHT31;58587;53.034;18.576;2022-11-18T19:33:02;-1.57;75.28
70928;SHT31;58587;53.034;18.576;2022-11-18T19:35:28;-1.62;75.27
70928;SHT31;58587;53.034;18.576;2022-11-18T19:37:53;-1.63;75.43
70928;SHT31;58587;53.034;18.576;2022-11-18T19:40:19;-1.66;76.30
70928;SHT31;58587;53.034;18.576;2022-11-18T19:42:44;-1.64;76.19
70928;SHT31;58587;53.034;18.576;2022-11-18T19:45:11;-1.67;76.50
70928;SHT31;58587;53.034;18.576;2022-11-18T19:47:37;-1.70;76.51
70928;SHT31;58587;53.034;18.576;2022-11-18T19:50:04;-1.74;76.39
70928;SHT31;58587;53.034;18.576;2022-11-18T19:52:30;-1.73;76.52
70928;SHT31;58587;53.034;18.576;2022-11-18T19:54:55;-1.79;76.44
70928;SHT31;58587;53.034;18.576;2022-11-18T19:57:22;-1.83;76.31
70928;SHT31;58587;53.034;18.576;2022-11-18T19:59:48;-1.84;76.38
70928;SHT31;58587;53.034;18.576;2022-11-18T20:02:13;-1.90;76.33
70928;SHT31;58587;53.034;18.576;2022-11-18T20:04:38;-1.95;75.95
70928;SHT31;58587;53.034;18.576;2022-11-18T20:07:04;-1.97;76.49
70928;SHT31;58587;53.034;18.576;2022-11-18T20:09:29;-1.95;76.36
70928;SHT31;58587;53.034;18.576;2022-11-18T20:11:55;-2.00;76.18
70928;SHT31;58587;53.034;18.576;2022-11-18T20:14:20;-2.02;76.45
70928;SHT31;58587;53.034;18.576;2022-11-18T20:16:46;-2.07;76.39
70928;SHT31;58587;53.034;18.576;2022-11-18T20:19:11;-2.05;76.49
70928;SHT31;58587;53.034;18.576;2022-11-18T20:21:38;-2.08;76.51
70928;SHT31;58587;53.034;18.576;2022-11-18T20:24:05;-2.12;76.75
70928;SHT31;58587;53.034;18.576;2022-11-18T20:26:36;-2.18;76.98
70928;SHT31;58587;53.034;18.576;2022-11-18T20:29:03;-2.21;77.12
70928;SHT31;58587;53.034;18.576;2022-11-18T20:31:30;-2.22;77.17
70928;SHT31;58587;53.034;18.576;2022-11-18T20:33:57;-2.21;77.43
70928;SHT31;58587;53.034;18.576;2022-11-18T20:36:31;-2.34;77.34
70928;SHT31;58587;53.034;18.576;2022-11-18T20:38:59;-2.32;77.65
70928;SHT31;58587;53.034;18.576;2022-11-18T20:41:25;-2.38;78.00
70928;SHT31;58587;53.034;18.576;2022-11-18T20:43:54;-2.37;77.75
70928;SHT31;58587;53.034;18.576;2022-11-18T20:46:20;-2.38;78.01
70928;SHT31;58587;53.034;18.576;2022-11-18T20:48:46;-2.45;77.98
70928;SHT31;58587;53.034;18.576;2022-11-18T20:51:18;-2.44;77.80
70928;SHT31;58587;53.034;18.576;2022-11-18T20:53:44;-2.46;78.24
70928;SHT31;58587;53.034;18.576;2022-11-18T20:56:18;-2.52;77.99
70928;SHT31;58587;53.034;18.576;2022-11-18T20:58:43;-2.52;77.98
70928;SHT31;58587;53.034;18.576;2022-11-18T21:03:39;-2.61;78.40
70928;SHT31;58587;53.034;18.576;2022-11-18T21:08:32;-2.64;78.76
70928;SHT31;58587;53.034;18.576;2022-11-18T21:11:01;-2.65;79.01
70928;SHT31;58587;53.034;18.576;2022-11-18T21:13:33;-2.68;79.64
70928;SHT31;58587;53.034;18.576;2022-11-18T21:16:18;-2.69;79.25
70928;SHT31;58587;53.034;18.576;2022-11-18T21:18:44;-2.75;79.30
70928;SHT31;58587;53.034;18.576;2022-11-18T21:21:09;-2.75;79.58
70928;SHT31;58587;53.034;18.576;2022-11-18T21:23:54;-2.82;79.67
70928;SHT31;58587;53.034;18.576;2022-11-18T21:26:21;-2.80;79.59
70928;SHT31;58587;53.034;18.576;2022-11-18T21:28:47;-2.85;79.85
70928;SHT31;58587;53.034;18.576;2022-11-18T21:31:13;-2.89;80.41
70928;SHT31;58587;53.034;18.576;2022-11-18T21:33:39;-2.89;80.69
70928;SHT31;58587;53.034;18.576;2022-11-18T21:36:05;-2.92;80.59
70928;SHT31;58587;53.034;18.576;2022-11-18T21:38:30;-2.95;80.93
70928;SHT31;58587;53.034;18.576;2022-11-18T21:41:01;-2.99;80.89
70928;SHT31;58587;53.034;18.576;2022-11-18T21:43:30;-3.01;80.90
70928;SHT31;58587;53.034;18.576;2022-11-18T21:46:05;-3.03;81.51
70928;SHT31;58587;53.034;18.576;2022-11-18T21:48:31;-3.04;80.97
70928;SHT31;58587;53.034;18.576;2022-11-18T21:51:06;-3.07;81.25
70928;SHT31;58587;53.034;18.576;2022-11-18T21:53:32;-3.09;81.31
70928;SHT31;58587;53.034;18.576;2022-11-18T21:56:05;-3.13;81.61
70928;SHT31;58587;53.034;18.576;2022-11-18T21:58:31;-3.16;81.75
70928;SHT31;58587;53.034;18.576;2022-11-18T22:01:24;-3.21;81.58
70928;SHT31;58587;53.034;18.576;2022-11-18T22:03:52;-3.20;82.15
70928;SHT31;58587;53.034;18.576;2022-11-18T22:06:18;-3.17;81.82
70928;SHT31;58587;53.034;18.576;2022-11-18T22:08:44;-3.24;81.35
70928;SHT31;58587;53.034;18.576;2022-11-18T22:11:11;-3.27;81.44
70928;SHT31;58587;53.034;18.576;2022-11-18T22:13:37;-3.31;81.29
70928;SHT31;58587;53.034;18.576;2022-11-18T22:16:09;-3.40;81.42
70928;SHT31;58587;53.034;18.576;2022-11-18T22:18:37;-3.46;81.39
70928;SHT31;58587;53.034;18.576;2022-11-18T22:21:14;-3.48;81.55
70928;SHT31;58587;53.034;18.576;2022-11-18T22:23:41;-3.50;82.09
70928;SHT31;58587;53.034;18.576;2022-11-18T22:26:11;-3.50;82.18
70928;SHT31;58587;53.034;18.576;2022-11-18T22:28:37;-3.57;82.26
70928;SHT31;58587;53.034;18.576;2022-11-18T22:33:31;-3.67;82.11
70928;SHT31;58587;53.034;18.576;2022-11-18T22:36:05;-3.82;81.90
70928;SHT31;58587;53.034;18.576;2022-11-18T22:38:31;-3.82;82.30
70928;SHT31;58587;53.034;18.576;2022-11-18T22:41:01;-3.82;82.32
70928;SHT31;58587;53.034;18.576;2022-11-18T22:43:28;-3.82;82.35
70928;SHT31;58587;53.034;18.576;2022-11-18T22:46:00;-3.89;82.31
70928;SHT31;58587;53.034;18.576;2022-11-18T22:48:26;-3.95;82.36
70928;SHT31;58587;53.034;18.576;2022-11-18T22:50:57;-3.98;82.57
70928;SHT31;58587;53.034;18.576;2022-11-18T22:53:22;-4.02;82.61
70928;SHT31;58587;53.034;18.576;2022-11-18T22:55:47;-4.01;82.67
70928;SHT31;58587;53.034;18.576;2022-11-18T22:58:13;-4.06;82.73
70928;SHT31;58587;53.034;18.576;2022-11-18T23:00:38;-4.09;82.90
70928;SHT31;58587;53.034;18.576;2022-11-18T23:03:03;-4.15;82.94
70928;SHT31;58587;53.034;18.576;2022-11-18T23:05:29;-4.17;83.30
70928;SHT31;58587;53.034;18.576;2022-11-18T23:07:54;-4.15;83.34
70928;SHT31;58587;53.034;18.576;2022-11-18T23:10:19;-4.23;83.26
70928;SHT31;58587;53.034;18.576;2022-11-18T23:12:45;-4.20;83.67
70928;SHT31;58587;53.034;18.576;2022-11-18T23:15:31;-4.20;83.93
70928;SHT31;58587;53.034;18.576;2022-11-18T23:17:56;-4.30;83.85
70928;SHT31;58587;53.034;18.576;2022-11-18T23:20:22;-4.32;83.74
70928;SHT31;58587;53.034;18.576;2022-11-18T23:22:47;-4.36;83.50
70928;SHT31;58587;53.034;18.576;2022-11-18T23:25:13;-4.40;83.49
70928;SHT31;58587;53.034;18.576;2022-11-18T23:27:38;-4.44;83.59
70928;SHT31;58587;53.034;18.576;2022-11-18T23:30:04;-4.46;84.03
70928;SHT31;58587;53.034;18.576;2022-11-18T23:32:30;-4.52;84.14
70928;SHT31;58587;53.034;18.576;2022-11-18T23:34:55;-4.47;83.91
70928;SHT31;58587;53.034;18.576;2022-11-18T23:37:20;-4.49;84.34
70928;SHT31;58587;53.034;18.576;2022-11-18T23:39:46;-4.46;84.51
70928;SHT31;58587;53.034;18.576;2022-11-18T23:42:11;-4.53;84.62
70928;SHT31;58587;53.034;18.576;2022-11-18T23:44:36;-4.56;84.36
70928;SHT31;58587;53.034;18.576;2022-11-18T23:47:11;-4.56;84.22
70928;SHT31;58587;53.034;18.576;2022-11-18T23:49:37;-4.58;84.35
70928;SHT31;58587;53.034;18.576;2022-11-18T23:52:02;-4.60;84.09
70928;SHT31;58587;53.034;18.576;2022-11-18T23:54:28;-4.67;84.11
70928;SHT31;58587;53.034;18.576;2022-11-18T23:56:53;-4.68;84.21
70928;SHT31;58587;53.034;18.576;2022-11-18T23:59:18;-4.71;84.64
